Terminal Aerodrome Forecast
Issued by NWS Sioux Falls, SD

Home | Current Version | Previous Version | Graphics & Text | Print | Product List | Glossary Off
Versions: 1 2 3 4 5 6 7 8 9 10 11 12 13 14 15 16 17 18 19 20 21 22 23 24 25

000
FTUS43 KFSD 031120
TAFSUX
TAF
KSUX 031120Z 0312/0412 18004KT P6SM SCT035 SCT120
     FM031400 17010KT P6SM OVC080
     FM031900 18010KT P6SM VCSH BKN030
     FM040000 16008KT 4SM -RASN BR OVC015
     FM040300 17009KT P6SM OVC008
     FM040900 20007KT P6SM OVC025=

USA.gov is the U.S. government's official web portal to all federal, state and local government web resources and services.